Time;durP1;ratioP1;P1;durP2;ratioP2;P2;SDS_P1;SDS_P2;PMS_P1;PMS_P2;Temp;Humidity;BMP_temperature;BMP_pressure;BME280_temperature;BME280_humidity;BME280_pressure;Samples;Min_cycle;Max_cycle;Signal;HPM_P1;HPM_P2
2024/01/31 00:01:01;;;;;;;3.15;1.42;;;6.60;99.90;;;;;;5012346;28;20084;-71
2024/01/31 00:03:27;;;;;;;7.15;1.52;;;6.60;99.90;;;;;;5010743;28;20401;-71
2024/01/31 00:05:52;;;;;;;2.70;1.55;;;6.50;99.90;;;;;;5011858;28;20046;-70
2024/01/31 00:08:18;;;;;;;3.97;1.48;;;6.50;99.90;;;;;;5012050;28;20042;-70
2024/01/31 00:10:44;;;;;;;8.32;1.98;;;6.60;99.90;;;;;;5011787;28;20061;-70
2024/01/31 00:13:09;;;;;;;5.82;2.17;;;6.60;99.90;;;;;;5011694;28;20417;-70
2024/01/31 00:15:35;;;;;;;6.60;2.13;;;6.60;99.90;;;;;;5011735;28;20084;-70
2024/01/31 00:18:01;;;;;;;5.90;1.63;;;6.50;99.90;;;;;;5011537;28;20080;-70
2024/01/31 00:20:26;;;;;;;7.40;1.77;;;6.50;99.90;;;;;;5011435;28;20041;-69
2024/01/31 00:22:52;;;;;;;9.20;1.58;;;6.60;99.90;;;;;;5011586;28;20041;-70
2024/01/31 00:25:18;;;;;;;4.15;1.50;;;6.60;99.90;;;;;;5011707;28;20163;-70
2024/01/31 00:27:43;;;;;;;7.60;1.80;;;6.50;99.90;;;;;;5011211;28;20410;-70
2024/01/31 00:30:10;;;;;;;6.57;2.03;;;6.60;99.90;;;;;;5010124;28;20486;-70
2024/01/31 00:32:35;;;;;;;5.47;1.90;;;6.50;99.90;;;;;;5010906;28;20041;-70
2024/01/31 00:35:02;;;;;;;4.10;1.42;;;6.50;99.90;;;;;;5010823;28;20510;-70
2024/01/31 00:37:27;;;;;;;7.38;1.80;;;6.60;99.90;;;;;;5011251;28;20100;-70
2024/01/31 00:39:53;;;;;;;7.22;2.42;;;6.60;99.90;;;;;;5010980;28;20702;-70
2024/01/31 00:42:19;;;;;;;8.95;2.28;;;6.60;99.90;;;;;;5010769;28;20069;-70
2024/01/31 00:44:44;;;;;;;5.88;1.80;;;6.50;99.90;;;;;;5010949;28;20080;-69
2024/01/31 00:47:10;;;;;;;7.13;1.80;;;6.50;99.90;;;;;;5011244;28;20034;-70
2024/01/31 00:49:36;;;;;;;5.68;1.60;;;6.60;99.90;;;;;;5010935;28;20480;-70
2024/01/31 00:52:02;;;;;;;7.57;1.70;;;6.50;99.90;;;;;;5010706;28;20045;-69
2024/01/31 00:54:28;;;;;;;4.72;1.90;;;6.60;99.90;;;;;;5010677;28;20057;-70
2024/01/31 00:56:53;;;;;;;12.25;2.22;;;6.50;99.90;;;;;;5009353;28;20056;-70
2024/01/31 00:59:20;;;;;;;4.03;1.52;;;6.50;99.90;;;;;;5010658;28;20062;-71
2024/01/31 01:01:46;;;;;;;10.23;1.83;;;6.50;99.90;;;;;;5010965;28;20050;-71
2024/01/31 01:04:11;;;;;;;8.02;2.00;;;6.40;99.90;;;;;;5010501;28;20370;-70
2024/01/31 01:06:40;;;;;;;7.78;1.90;;;6.50;99.90;;;;;;5009991;28;20038;-71
2024/01/31 01:09:06;;;;;;;4.13;1.52;;;6.50;99.90;;;;;;5025482;28;20054;-70
2024/01/31 01:11:31;;;;;;;7.18;1.90;;;6.60;99.90;;;;;;5010239;28;20060;-70
2024/01/31 01:13:57;;;;;;;6.00;1.77;;;6.50;99.90;;;;;;5010587;28;20147;-70
2024/01/31 01:16:23;;;;;;;9.75;1.83;;;6.50;99.90;;;;;;5008698;28;20041;-70
2024/01/31 01:18:49;;;;;;;3.70;1.30;;;6.50;99.90;;;;;;5010307;28;20046;-70
2024/01/31 01:21:15;;;;;;;4.10;1.60;;;6.50;99.90;;;;;;5010272;28;20037;-71
2024/01/31 01:23:40;;;;;;;6.07;2.20;;;6.50;99.90;;;;;;5010237;28;20046;-71
2024/01/31 01:26:06;;;;;;;6.38;1.60;;;6.50;99.90;;;;;;5009983;28;20049;-71
2024/01/31 01:28:32;;;;;;;4.15;1.33;;;6.50;99.90;;;;;;5011113;28;20046;-71
2024/01/31 01:30:57;;;;;;;6.45;1.60;;;6.50;99.90;;;;;;5011102;28;20084;-71
2024/01/31 01:33:23;;;;;;;5.78;1.67;;;6.50;99.90;;;;;;5010458;28;20118;-70
2024/01/31 01:35:49;;;;;;;6.97;2.45;;;6.50;99.90;;;;;;5010535;28;20770;-71
2024/01/31 01:38:14;;;;;;;3.42;1.88;;;6.50;99.90;;;;;;5010585;28;20049;-71
2024/01/31 01:40:44;;;;;;;4.05;1.70;;;6.40;99.90;;;;;;5010274;28;20122;-71
2024/01/31 01:43:17;;;;;;;6.07;2.17;;;6.40;99.90;;;;;;5010266;28;20081;-71
2024/01/31 01:45:43;;;;;;;3.65;2.13;;;6.50;99.90;;;;;;5008693;28;20049;-71
2024/01/31 01:48:14;;;;;;;2.13;1.38;;;6.40;99.90;;;;;;5005917;28;20545;-71
2024/01/31 01:50:39;;;;;;;7.47;1.70;;;6.50;99.90;;;;;;4990285;28;20587;-71
2024/01/31 01:53:06;;;;;;;6.28;1.55;;;6.40;99.90;;;;;;5008116;28;20042;-71
2024/01/31 01:55:31;;;;;;;7.72;1.95;;;6.30;99.90;;;;;;5003572;28;20456;-71
2024/01/31 01:57:57;;;;;;;4.07;1.65;;;6.40;99.90;;;;;;5009688;28;20126;-72
2024/01/31 02:00:26;;;;;;;3.33;1.60;;;6.40;99.90;;;;;;5008120;28;20449;-71
2024/01/31 02:02:52;;;;;;;5.30;1.52;;;6.40;99.90;;;;;;5007857;28;20050;-71
2024/01/31 02:05:18;;;;;;;6.10;1.63;;;6.40;99.90;;;;;;5009558;28;20048;-71
2024/01/31 02:07:44;;;;;;;6.00;1.90;;;6.40;99.90;;;;;;5009160;28;20078;-71
2024/01/31 02:10:10;;;;;;;4.05;1.58;;;6.30;99.90;;;;;;5008829;28;20463;-71
2024/01/31 02:12:35;;;;;;;1.65;1.52;;;6.40;99.90;;;;;;5009369;28;20093;-71
2024/01/31 02:15:02;;;;;;;6.57;2.13;;;6.30;99.90;;;;;;5009234;28;20085;-70
2024/01/31 02:17:28;;;;;;;4.05;1.40;;;6.30;99.90;;;;;;5008175;28;20389;-71
2024/01/31 02:19:53;;;;;;;5.25;1.60;;;6.30;99.90;;;;;;5008079;28;20042;-71
2024/01/31 02:22:19;;;;;;;6.97;1.40;;;6.30;99.90;;;;;;5009596;28;20048;-71
2024/01/31 02:24:45;;;;;;;2.97;1.50;;;6.30;99.90;;;;;;5009592;28;20099;-71
2024/01/31 02:27:12;;;;;;;3.53;1.40;;;6.30;99.90;;;;;;5009470;28;20037;-71
2024/01/31 02:29:38;;;;;;;3.40;1.48;;;6.30;99.90;;;;;;5009052;28;20053;-70
2024/01/31 02:32:06;;;;;;;3.78;1.67;;;6.20;99.90;;;;;;5009387;28;20212;-70
2024/01/31 02:34:32;;;;;;;5.47;1.50;;;6.30;99.90;;;;;;5009524;28;20044;-70
2024/01/31 02:36:58;;;;;;;4.88;1.85;;;6.30;99.90;;;;;;5009387;28;20116;-71
2024/01/31 02:39:24;;;;;;;3.85;1.27;;;6.20;99.90;;;;;;5008833;28;20037;-71
2024/01/31 02:41:52;;;;;;;4.57;1.70;;;6.20;99.90;;;;;;5008940;28;20042;-70
2024/01/31 02:44:18;;;;;;;4.50;1.40;;;6.20;99.90;;;;;;5007346;28;20053;-70
2024/01/31 02:46:44;;;;;;;5.43;1.55;;;6.20;99.90;;;;;;5007194;28;20045;-70
2024/01/31 02:49:10;;;;;;;2.67;1.23;;;6.20;99.90;;;;;;5008582;28;20068;-70
2024/01/31 02:51:36;;;;;;;6.68;2.03;;;6.20;99.90;;;;;;5008540;28;20038;-70
2024/01/31 02:54:01;;;;;;;2.90;1.70;;;6.20;99.90;;;;;;5008709;28;20038;-71
2024/01/31 02:56:27;;;;;;;3.13;1.83;;;6.20;99.90;;;;;;5007408;28;20044;-70
2024/01/31 02:58:53;;;;;;;6.95;2.45;;;6.30;99.90;;;;;;5008475;28;20135;-70
2024/01/31 03:01:18;;;;;;;4.70;1.40;;;6.20;99.90;;;;;;5008763;28;20041;-70
2024/01/31 03:03:44;;;;;;;2.30;1.58;;;6.20;99.90;;;;;;5008644;28;20129;-70
2024/01/31 03:06:10;;;;;;;6.15;1.60;;;6.10;99.90;;;;;;5008535;28;20037;-70
2024/01/31 03:08:36;;;;;;;5.60;1.85;;;6.20;99.90;;;;;;5008487;28;20113;-70
2024/01/31 03:11:03;;;;;;;3.45;1.63;;;6.10;99.90;;;;;;5008755;28;20061;-69
2024/01/31 03:13:28;;;;;;;2.42;1.40;;;6.20;99.90;;;;;;5008438;28;20050;-70
2024/01/31 03:15:54;;;;;;;4.10;1.85;;;6.20;99.90;;;;;;5008591;28;20052;-69
2024/01/31 03:18:20;;;;;;;4.90;1.73;;;6.30;99.90;;;;;;5008979;28;20046;-70
2024/01/31 03:20:46;;;;;;;5.20;1.80;;;6.20;99.90;;;;;;5008641;28;20049;-69
2024/01/31 03:23:12;;;;;;;1.95;1.50;;;6.20;99.90;;;;;;5023676;28;20061;-70
2024/01/31 03:25:38;;;;;;;3.38;2.08;;;6.20;99.90;;;;;;5008444;28;20058;-69
2024/01/31 03:28:04;;;;;;;1.52;1.40;;;6.20;99.90;;;;;;5008020;28;20053;-70
2024/01/31 03:30:29;;;;;;;6.32;1.90;;;6.20;99.90;;;;;;5011681;28;20053;-70
2024/01/31 03:32:55;;;;;;;8.77;1.73;;;6.20;99.90;;;;;;5010915;28;20046;-69
2024/01/31 03:35:22;;;;;;;8.32;1.70;;;6.20;99.90;;;;;;5012287;28;20116;-69
2024/01/31 03:37:47;;;;;;;5.10;1.50;;;6.20;99.90;;;;;;5011847;28;20046;-70
2024/01/31 03:40:13;;;;;;;5.30;1.48;;;6.20;99.90;;;;;;5012093;28;20104;-69
2024/01/31 03:42:39;;;;;;;7.85;1.50;;;6.20;99.90;;;;;;5012121;28;20038;-69
2024/01/31 03:45:05;;;;;;;7.90;1.85;;;6.10;99.90;;;;;;5012218;28;20373;-70
2024/01/31 03:47:34;;;;;;;3.92;1.55;;;6.20;99.90;;;;;;5012087;28;20149;-70
2024/01/31 03:49:59;;;;;;;5.25;2.53;;;6.20;99.90;;;;;;5026791;28;20576;-70
2024/01/31 03:52:25;;;;;;;2.33;1.38;;;6.20;99.90;;;;;;5011778;28;20117;-70
2024/01/31 03:54:51;;;;;;;5.65;1.60;;;6.20;99.90;;;;;;5011772;28;20429;-70
2024/01/31 03:57:17;;;;;;;2.67;1.48;;;6.20;99.90;;;;;;5012017;28;20030;-70
2024/01/31 03:59:43;;;;;;;3.38;1.95;;;6.10;99.90;;;;;;5011644;28;20119;-70
2024/01/31 04:02:08;;;;;;;6.05;1.70;;;6.20;99.90;;;;;;5027065;28;20103;-70
2024/01/31 04:04:34;;;;;;;7.47;1.70;;;6.20;99.90;;;;;;5026747;28;20053;-70
2024/01/31 04:06:59;;;;;;;3.28;1.33;;;6.20;99.90;;;;;;5011659;28;20395;-69
2024/01/31 04:09:25;;;;;;;3.30;1.60;;;6.20;99.90;;;;;;5011828;28;20042;-70
2024/01/31 04:11:51;;;;;;;5.43;1.55;;;6.10;99.90;;;;;;5011420;28;20520;-70
2024/01/31 04:14:16;;;;;;;4.85;1.42;;;6.10;99.90;;;;;;5011809;28;20048;-70
2024/01/31 04:16:43;;;;;;;2.38;1.35;;;6.10;99.90;;;;;;5011478;28;20427;-70
2024/01/31 04:19:08;;;;;;;4.53;1.40;;;6.10;99.90;;;;;;5024442;28;20049;-70
2024/01/31 04:21:34;;;;;;;4.72;1.30;;;6.10;99.90;;;;;;5011285;28;20042;-70
2024/01/31 04:24:00;;;;;;;4.05;1.30;;;6.10;99.90;;;;;;5011106;28;20109;-70
2024/01/31 04:26:25;;;;;;;8.45;1.60;;;6.10;99.90;;;;;;5011483;28;20041;-70
2024/01/31 04:28:52;;;;;;;3.65;1.77;;;6.00;99.90;;;;;;5026233;28;20049;-70
2024/01/31 04:31:18;;;;;;;2.03;1.38;;;6.00;99.90;;;;;;5011910;28;20046;-69
2024/01/31 04:33:43;;;;;;;3.47;1.20;;;6.00;99.90;;;;;;5010948;28;20904;-69
2024/01/31 04:36:09;;;;;;;1.85;1.27;;;6.00;99.90;;;;;;5011542;28;20034;-69
2024/01/31 04:38:35;;;;;;;5.38;1.10;;;6.10;99.90;;;;;;5009800;28;20077;-69
2024/01/31 04:41:04;;;;;;;2.28;1.20;;;6.00;99.90;;;;;;5010314;28;20053;-69
2024/01/31 04:43:30;;;;;;;5.18;1.20;;;6.00;99.90;;;;;;5026175;28;20042;-69
2024/01/31 04:45:56;;;;;;;5.00;1.40;;;6.10;99.90;;;;;;5011230;28;20045;-69
2024/01/31 04:48:22;;;;;;;3.15;1.30;;;6.00;99.90;;;;;;5010795;28;20038;-70
2024/01/31 04:50:47;;;;;;;4.47;1.30;;;6.10;99.90;;;;;;5011396;28;20046;-69
2024/01/31 04:53:13;;;;;;;3.78;1.35;;;6.10;99.90;;;;;;5011399;28;20041;-70
2024/01/31 04:55:39;;;;;;;3.20;1.58;;;6.10;99.90;;;;;;5011391;28;20049;-70
2024/01/31 04:58:04;;;;;;;2.83;1.25;;;6.00;99.90;;;;;;5011474;28;20054;-70
2024/01/31 05:00:30;;;;;;;3.75;1.10;;;6.10;99.90;;;;;;5011588;28;20149;-70
2024/01/31 05:02:56;;;;;;;2.72;1.17;;;6.10;99.90;;;;;;5011073;28;20774;-70
2024/01/31 05:05:21;;;;;;;7.60;1.58;;;6.00;99.90;;;;;;5024752;28;20060;-69
2024/01/31 05:07:47;;;;;;;4.53;1.38;;;6.00;99.90;;;;;;5010623;28;20124;-70
2024/01/31 05:10:13;;;;;;;1.77;1.42;;;5.90;99.90;;;;;;5010224;28;20088;-69
2024/01/31 05:12:39;;;;;;;4.78;1.15;;;6.00;99.90;;;;;;5010460;28;20057;-70
2024/01/31 05:15:05;;;;;;;6.97;1.35;;;6.00;99.90;;;;;;5010273;28;20042;-70
2024/01/31 05:17:31;;;;;;;4.68;1.30;;;6.00;99.90;;;;;;5010733;28;20052;-70
2024/01/31 05:19:57;;;;;;;4.32;1.50;;;6.00;99.90;;;;;;5010423;28;20438;-70
2024/01/31 05:22:23;;;;;;;7.97;1.33;;;6.00;99.90;;;;;;5009253;28;20121;-70
2024/01/31 05:24:48;;;;;;;4.47;1.40;;;5.90;99.90;;;;;;5010170;28;20108;-70
2024/01/31 05:27:14;;;;;;;5.88;1.58;;;6.10;99.90;;;;;;5010094;28;20063;-70
2024/01/31 05:29:40;;;;;;;3.17;1.55;;;6.00;99.90;;;;;;5010200;28;20061;-69
2024/01/31 05:32:06;;;;;;;6.72;1.73;;;5.90;99.90;;;;;;5009787;28;20050;-70
2024/01/31 05:34:31;;;;;;;3.55;2.05;;;5.90;99.90;;;;;;5010227;28;20046;-70
2024/01/31 05:36:57;;;;;;;2.60;1.40;;;5.90;99.90;;;;;;5025117;28;20147;-70
2024/01/31 05:39:23;;;;;;;4.25;1.55;;;5.80;99.90;;;;;;5024929;28;20049;-70
2024/01/31 05:41:48;;;;;;;4.55;1.58;;;5.80;99.90;;;;;;4996633;28;20049;-70
2024/01/31 05:44:14;;;;;;;3.72;1.58;;;5.80;99.90;;;;;;4989219;28;20046;-70
2024/01/31 05:46:40;;;;;;;5.80;1.52;;;5.70;99.90;;;;;;4990317;28;20545;-70
2024/01/31 05:49:06;;;;;;;5.65;1.88;;;5.80;99.90;;;;;;4990254;28;20042;-70
2024/01/31 05:51:31;;;;;;;2.85;1.90;;;5.90;99.90;;;;;;5005821;28;20040;-70
2024/01/31 05:53:57;;;;;;;2.60;2.25;;;5.90;99.90;;;;;;5008256;28;20103;-70
2024/01/31 05:56:23;;;;;;;5.47;1.98;;;5.90;99.90;;;;;;5009578;28;20104;-70
2024/01/31 05:58:49;;;;;;;3.83;1.75;;;5.90;99.90;;;;;;5009576;28;20053;-70
2024/01/31 06:01:15;;;;;;;8.13;2.05;;;5.90;99.90;;;;;;5009462;28;20140;-70
2024/01/31 06:03:41;;;;;;;5.55;2.20;;;5.90;99.90;;;;;;5009849;28;20387;-70
2024/01/31 06:06:06;;;;;;;6.45;1.73;;;5.90;99.90;;;;;;5009464;28;20041;-70
2024/01/31 06:08:33;;;;;;;4.68;2.00;;;5.90;99.90;;;;;;5009512;28;20046;-70
2024/01/31 06:11:08;;;;;;;2.42;1.50;;;5.90;99.90;;;;;;5008148;28;20061;-70
2024/01/31 06:13:35;;;;;;;9.95;1.95;;;5.90;99.90;;;;;;5009724;28;20038;-70
2024/01/31 06:16:02;;;;;;;5.03;1.85;;;5.90;99.90;;;;;;5009284;28;20100;-70
2024/01/31 06:18:29;;;;;;;5.97;2.10;;;5.90;99.90;;;;;;5009605;28;20121;-70
2024/01/31 06:20:55;;;;;;;4.35;2.05;;;5.90;99.90;;;;;;5009284;28;20044;-70
2024/01/31 06:23:20;;;;;;;7.07;2.80;;;5.90;99.90;;;;;;5009653;28;20050;-71
2024/01/31 06:25:48;;;;;;;5.03;2.10;;;5.80;99.90;;;;;;5009687;28;20461;-71
2024/01/31 06:28:14;;;;;;;6.82;2.17;;;5.80;99.90;;;;;;5007917;28;20365;-70
2024/01/31 06:30:44;;;;;;;5.00;2.10;;;5.90;99.90;;;;;;5009004;28;20038;-70
2024/01/31 06:33:11;;;;;;;12.55;3.58;;;5.90;99.90;;;;;;5009386;28;20045;-70
2024/01/31 06:35:39;;;;;;;6.43;2.13;;;5.80;99.90;;;;;;5007573;28;20045;-70
2024/01/31 06:38:05;;;;;;;4.43;2.10;;;5.80;99.90;;;;;;5009197;28;20042;-70
2024/01/31 06:40:31;;;;;;;6.60;2.40;;;5.80;99.90;;;;;;5009042;28;20155;-70
2024/01/31 06:42:58;;;;;;;3.67;2.05;;;5.90;99.90;;;;;;5009320;28;20129;-70
2024/01/31 06:45:26;;;;;;;6.15;2.45;;;5.90;99.90;;;;;;5008570;28;20119;-69
2024/01/31 06:47:52;;;;;;;4.13;1.80;;;5.90;99.90;;;;;;5009247;28;20061;-69
2024/01/31 06:50:19;;;;;;;3.88;2.33;;;5.90;99.90;;;;;;5008762;28;20045;-69
2024/01/31 06:52:46;;;;;;;5.43;1.98;;;5.90;99.90;;;;;;5009054;28;20050;-69
2024/01/31 06:55:13;;;;;;;3.97;2.00;;;5.90;99.90;;;;;;5009187;28;20038;-69
2024/01/31 06:57:38;;;;;;;6.65;2.28;;;5.90;99.90;;;;;;5009011;28;20045;-70
2024/01/31 07:00:11;;;;;;;2.75;2.50;;;6.00;99.90;;;;;;5008718;28;20049;-69
2024/01/31 07:02:37;;;;;;;8.07;2.42;;;5.90;99.90;;;;;;5008896;28;20049;-68
2024/01/31 07:05:04;;;;;;;4.65;2.17;;;6.00;99.90;;;;;;5008380;28;20042;-69
2024/01/31 07:07:30;;;;;;;4.25;2.50;;;6.00;99.90;;;;;;5008988;28;20042;-69
2024/01/31 07:09:56;;;;;;;7.75;2.67;;;6.00;99.90;;;;;;5023754;28;20042;-69
2024/01/31 07:12:21;;;;;;;3.53;1.92;;;6.00;99.90;;;;;;5008650;28;20173;-69
2024/01/31 07:14:47;;;;;;;4.60;2.30;;;6.00;99.90;;;;;;5011554;28;20111;-69
2024/01/31 07:17:13;;;;;;;6.78;2.42;;;6.00;99.90;;;;;;5008437;28;20486;-69
2024/01/31 07:19:45;;;;;;;9.73;2.95;;;6.00;99.90;;;;;;5008416;28;20585;-69
2024/01/31 07:22:10;;;;;;;6.95;3.03;;;6.00;99.90;;;;;;4997768;28;20046;-69
2024/01/31 07:24:36;;;;;;;5.25;2.65;;;6.00;99.90;;;;;;5008660;28;20053;-69
2024/01/31 07:27:02;;;;;;;6.85;2.70;;;6.00;99.90;;;;;;5008389;28;20042;-70
2024/01/31 07:29:29;;;;;;;10.68;3.13;;;6.10;99.90;;;;;;5007232;28;20506;-69
2024/01/31 07:31:55;;;;;;;3.38;2.47;;;6.00;99.90;;;;;;5008283;28;20169;-69
2024/01/31 07:34:20;;;;;;;12.75;3.22;;;5.90;99.90;;;;;;5008543;28;20573;-69
2024/01/31 07:36:46;;;;;;;10.85;3.00;;;6.00;99.90;;;;;;5008826;28;20033;-71
2024/01/31 07:39:12;;;;;;;8.68;2.50;;;6.10;99.90;;;;;;5023727;28;20046;-68
2024/01/31 07:41:38;;;;;;;9.70;2.55;;;6.00;99.90;;;;;;5009145;28;20042;-68
2024/01/31 07:44:03;;;;;;;4.72;2.85;;;5.90;99.90;;;;;;5009736;28;20060;-69
2024/01/31 07:46:30;;;;;;;4.45;3.00;;;6.00;99.90;;;;;;5008187;28;20048;-69
2024/01/31 07:48:55;;;;;;;9.73;3.13;;;6.00;99.90;;;;;;5008876;28;20048;-69
2024/01/31 07:51:21;;;;;;;7.05;3.53;;;6.00;99.90;;;;;;5007596;28;20121;-69
2024/01/31 07:53:47;;;;;;;7.55;3.83;;;6.00;99.90;;;;;;5008583;28;20199;-69
2024/01/31 07:56:13;;;;;;;7.47;3.72;;;6.00;99.90;;;;;;5008546;28;20073;-69
2024/01/31 07:58:38;;;;;;;7.57;3.80;;;6.00;99.90;;;;;;5008056;28;20049;-69
2024/01/31 08:01:04;;;;;;;12.80;5.85;;;6.00;99.90;;;;;;5008585;28;20100;-70
2024/01/31 08:03:31;;;;;;;5.50;3.67;;;5.90;99.90;;;;;;5008739;28;20045;-70
2024/01/31 08:05:59;;;;;;;7.88;4.05;;;5.90;99.90;;;;;;5008814;28;20042;-69
2024/01/31 08:08:25;;;;;;;7.43;4.07;;;5.90;99.90;;;;;;5021822;28;20522;-69
2024/01/31 08:10:50;;;;;;;9.40;4.13;;;5.90;99.90;;;;;;5008010;28;20058;-69
2024/01/31 08:13:16;;;;;;;6.70;4.28;;;5.90;99.90;;;;;;5007687;28;20064;-69
2024/01/31 08:15:42;;;;;;;11.10;4.82;;;5.90;99.90;;;;;;5008290;28;20046;-69
2024/01/31 08:18:08;;;;;;;9.70;4.13;;;6.00;99.90;;;;;;5012157;28;20084;-70
2024/01/31 08:20:33;;;;;;;6.60;4.53;;;6.10;99.90;;;;;;5027376;28;20056;-69
2024/01/31 08:22:59;;;;;;;7.22;4.40;;;6.00;99.90;;;;;;5035609;28;20153;-69
2024/01/31 08:25:25;;;;;;;10.05;4.20;;;6.00;99.90;;;;;;5001636;28;20054;-69
2024/01/31 08:27:51;;;;;;;7.40;4.55;;;6.00;99.90;;;;;;5008244;28;20490;-69
2024/01/31 08:30:17;;;;;;;10.00;4.57;;;6.00;99.90;;;;;;5006449;28;20042;-68
2024/01/31 08:32:44;;;;;;;9.27;4.25;;;6.00;99.90;;;;;;5001589;28;20042;-68
2024/01/31 08:35:10;;;;;;;8.77;4.32;;;6.10;99.90;;;;;;5009455;28;20521;-68
2024/01/31 08:37:36;;;;;;;8.23;4.03;;;6.00;99.90;;;;;;5010807;28;20046;-70
2024/01/31 08:40:03;;;;;;;9.70;4.60;;;6.10;99.90;;;;;;5003612;28;20038;-71
2024/01/31 08:42:28;;;;;;;11.80;5.07;;;6.00;99.90;;;;;;5018301;28;20477;-70
2024/01/31 08:44:57;;;;;;;8.75;3.90;;;6.00;99.90;;;;;;5029205;28;20107;-69
2024/01/31 08:47:23;;;;;;;18.50;4.68;;;6.00;99.90;;;;;;5019193;28;20070;-71
2024/01/31 08:49:49;;;;;;;7.40;4.35;;;6.10;99.90;;;;;;5010929;28;20077;-70
2024/01/31 08:52:15;;;;;;;8.05;4.55;;;6.10;99.90;;;;;;5010999;28;20520;-71
2024/01/31 08:54:41;;;;;;;8.32;3.80;;;6.10;99.90;;;;;;5008947;28;20053;-69
2024/01/31 08:57:06;;;;;;;10.38;3.97;;;6.10;99.90;;;;;;5011147;28;20682;-71
2024/01/31 08:59:32;;;;;;;6.90;3.80;;;6.10;99.90;;;;;;5009187;28;20050;-70
2024/01/31 09:01:58;;;;;;;7.85;4.30;;;6.10;99.90;;;;;;5010097;28;20033;-70
2024/01/31 09:04:24;;;;;;;8.20;4.10;;;6.20;99.90;;;;;;5014452;28;20120;-70
2024/01/31 09:06:49;;;;;;;11.15;3.58;;;6.10;99.90;;;;;;5010167;28;20034;-70
2024/01/31 09:09:15;;;;;;;7.10;3.75;;;6.10;99.90;;;;;;5008824;28;20046;-70
2024/01/31 09:11:41;;;;;;;7.78;3.30;;;6.10;99.90;;;;;;5004453;28;20049;-70
2024/01/31 09:14:07;;;;;;;11.55;4.10;;;6.10;99.90;;;;;;4999694;28;20046;-70
2024/01/31 09:16:34;;;;;;;4.68;3.55;;;6.10;99.90;;;;;;5010064;28;20137;-70
2024/01/31 09:19:01;;;;;;;6.78;3.78;;;6.10;99.90;;;;;;5010098;28;20498;-70
2024/01/31 09:21:27;;;;;;;8.57;4.05;;;6.10;99.90;;;;;;5010267;28;20041;-69
2024/01/31 09:23:54;;;;;;;7.57;3.88;;;6.00;99.90;;;;;;5026603;28;20102;-68
2024/01/31 09:26:19;;;;;;;6.43;4.35;;;6.10;99.90;;;;;;5010510;28;20081;-69
2024/01/31 09:28:45;;;;;;;8.50;5.03;;;6.00;99.90;;;;;;5009661;28;20049;-69
2024/01/31 09:31:18;;;;;;;8.40;4.30;;;6.10;99.90;;;;;;5010527;28;20088;-69
2024/01/31 09:33:44;;;;;;;6.60;4.45;;;6.10;99.90;;;;;;5009662;28;20121;-69
2024/01/31 09:36:09;;;;;;;7.75;4.03;;;6.00;99.90;;;;;;5004716;28;20109;-69
2024/01/31 09:38:35;;;;;;;10.77;4.35;;;6.00;99.90;;;;;;4990897;28;20049;-69
2024/01/31 09:41:01;;;;;;;7.35;4.78;;;6.00;99.90;;;;;;5008548;28;20512;-69
2024/01/31 09:43:26;;;;;;;11.00;5.13;;;6.10;99.90;;;;;;5009756;28;20045;-69
2024/01/31 09:45:55;;;;;;;8.48;4.28;;;6.10;99.90;;;;;;5009222;28;20482;-69
2024/01/31 09:48:21;;;;;;;7.32;3.90;;;6.20;99.90;;;;;;5009823;28;20088;-69
2024/01/31 09:50:46;;;;;;;8.45;4.10;;;6.20;99.90;;;;;;5009501;28;20073;-69
2024/01/31 09:53:14;;;;;;;7.05;4.00;;;6.30;99.90;;;;;;5008808;28;20030;-69
2024/01/31 09:55:41;;;;;;;5.82;3.78;;;6.30;99.90;;;;;;5007680;28;20050;-69
2024/01/31 09:58:07;;;;;;;5.72;4.15;;;6.20;99.90;;;;;;5008982;28;20087;-69
2024/01/31 10:00:33;;;;;;;7.70;4.18;;;6.30;99.90;;;;;;5009643;28;20129;-69
2024/01/31 10:02:59;;;;;;;11.40;4.28;;;6.30;99.90;;;;;;5009676;28;20053;-69
2024/01/31 10:05:25;;;;;;;6.00;3.70;;;6.30;99.90;;;;;;5007296;28;20049;-69
2024/01/31 10:08:00;;;;;;;8.25;4.15;;;6.30;99.90;;;;;;5009336;28;20423;-69
2024/01/31 10:10:27;;;;;;;5.85;4.10;;;6.40;99.90;;;;;;5009180;28;20060;-69
2024/01/31 10:12:53;;;;;;;6.90;3.95;;;6.40;99.90;;;;;;5008381;28;20112;-69
2024/01/31 10:15:19;;;;;;;8.65;4.30;;;6.40;99.90;;;;;;5009082;28;20078;-69
2024/01/31 10:17:45;;;;;;;6.80;4.30;;;6.50;99.90;;;;;;5008922;28;20049;-69
2024/01/31 10:20:12;;;;;;;7.45;4.55;;;6.50;99.90;;;;;;5006432;28;20080;-69
2024/01/31 10:22:38;;;;;;;9.45;4.40;;;6.50;99.90;;;;;;5004295;28;20129;-69
2024/01/31 10:25:05;;;;;;;8.15;4.10;;;6.50;99.90;;;;;;5004054;28;20145;-69
2024/01/31 10:27:37;;;;;;;9.27;4.90;;;6.50;99.90;;;;;;4997579;28;20390;-70
2024/01/31 10:30:08;;;;;;;8.05;5.13;;;6.60;99.90;;;;;;4992870;28;20096;-70
2024/01/31 10:32:40;;;;;;;7.72;4.40;;;6.60;99.90;;;;;;5009044;28;20057;-69
2024/01/31 10:35:07;;;;;;;;;;;6.60;99.90;;;;;;5009541;28;20104;-70
2024/01/31 10:37:34;;;;;;;7.78;4.00;;;6.60;99.90;;;;;;5007537;28;19921;-70
2024/01/31 10:40:01;;;;;;;9.50;4.90;;;6.60;99.90;;;;;;4988936;28;20042;-70
2024/01/31 10:42:26;;;;;;;4.95;3.70;;;6.50;99.90;;;;;;4989157;28;20045;-68
2024/01/31 10:44:53;;;;;;;7.28;4.53;;;6.60;99.90;;;;;;4990517;28;20034;-68
2024/01/31 10:47:19;;;;;;;8.00;4.53;;;6.70;99.90;;;;;;5001419;28;20490;-69
2024/01/31 10:49:45;;;;;;;10.80;5.18;;;6.60;99.90;;;;;;5003481;28;20128;-68
2024/01/31 10:52:14;;;;;;;8.85;5.57;;;6.70;99.90;;;;;;5008139;28;20132;-69
2024/01/31 10:54:47;;;;;;;6.40;4.90;;;6.70;99.90;;;;;;5008949;28;20041;-70
2024/01/31 10:57:15;;;;;;;8.98;5.30;;;6.60;99.90;;;;;;5008732;28;20046;-68
2024/01/31 10:59:40;;;;;;;8.27;5.20;;;6.70;99.90;;;;;;5005627;28;20033;-68
2024/01/31 11:02:17;;;;;;;8.45;5.45;;;6.60;99.90;;;;;;5008669;28;20034;-69
2024/01/31 11:04:43;;;;;;;7.45;5.03;;;6.60;99.90;;;;;;4993019;28;20038;-68
2024/01/31 11:07:18;;;;;;;6.63;5.25;;;6.60;99.90;;;;;;5007080;28;20069;-68
2024/01/31 11:09:44;;;;;;;6.97;5.25;;;6.60;99.90;;;;;;5006294;28;20482;-68
2024/01/31 11:12:17;;;;;;;9.73;6.15;;;6.60;99.90;;;;;;5006175;28;20497;-69
2024/01/31 11:14:44;;;;;;;;;;;6.70;99.90;;;;;;5001500;28;20789;-69
2024/01/31 11:17:19;;;;;;;8.88;6.25;;;6.60;99.90;;;;;;4988579;28;19995;-69
2024/01/31 11:19:50;;;;;;;8.38;6.15;;;6.60;99.90;;;;;;4999049;28;20073;-70
2024/01/31 11:22:16;;;;;;;8.65;5.93;;;6.60;99.90;;;;;;4999321;28;20052;-69
2024/01/31 11:24:46;;;;;;;9.30;5.85;;;6.60;99.90;;;;;;5006224;28;20101;-70
2024/01/31 11:27:14;;;;;;;8.27;6.32;;;6.60;99.90;;;;;;5002513;28;20355;-69
2024/01/31 11:29:45;;;;;;;9.63;7.00;;;6.60;99.90;;;;;;5007988;28;20092;-69
2024/01/31 11:32:12;;;;;;;10.13;7.43;;;6.60;99.90;;;;;;5007049;28;20042;-68
2024/01/31 11:34:39;;;;;;;11.45;6.93;;;6.60;99.90;;;;;;5007925;28;20068;-69
2024/01/31 11:37:05;;;;;;;10.82;7.03;;;6.60;99.90;;;;;;5008501;28;20433;-69
2024/01/31 11:39:30;;;;;;;8.98;6.20;;;6.70;99.90;;;;;;5008375;28;20130;-68
2024/01/31 11:41:56;;;;;;;6.78;5.32;;;6.80;99.90;;;;;;5023670;28;20045;-69
2024/01/31 11:44:23;;;;;;;8.32;5.10;;;6.80;99.90;;;;;;5008978;28;20411;-70
2024/01/31 11:46:50;;;;;;;5.55;4.82;;;6.80;99.90;;;;;;5008628;28;20034;-69
2024/01/31 11:49:16;;;;;;;6.93;6.07;;;6.90;99.90;;;;;;5008144;28;20048;-69
2024/01/31 11:51:42;;;;;;;6.82;5.70;;;6.90;99.90;;;;;;5011554;28;20549;-69
2024/01/31 11:54:09;;;;;;;7.38;4.90;;;6.90;99.90;;;;;;5027005;28;20046;-68
2024/01/31 11:56:35;;;;;;;6.53;5.10;;;7.00;99.90;;;;;;5010372;28;20038;-69
2024/01/31 11:59:03;;;;;;;10.68;5.72;;;7.00;99.90;;;;;;5012654;28;20132;-68
2024/01/31 12:01:30;;;;;;;9.20;5.82;;;7.00;99.90;;;;;;5010980;28;20053;-68
2024/01/31 12:03:56;;;;;;;6.03;5.13;;;7.00;99.90;;;;;;5010493;28;20512;-69
2024/01/31 12:06:22;;;;;;;10.10;5.95;;;7.10;99.90;;;;;;5010151;28;20053;-68
2024/01/31 12:08:49;;;;;;;7.38;5.47;;;7.10;99.90;;;;;;5011405;28;20081;-67
2024/01/31 12:11:15;;;;;;;6.07;5.47;;;7.20;99.90;;;;;;5006911;28;20042;-69
2024/01/31 12:13:41;;;;;;;10.45;5.88;;;7.20;99.90;;;;;;4991887;28;20157;-70
2024/01/31 12:16:10;;;;;;;11.35;5.80;;;7.20;99.90;;;;;;4992036;28;20466;-69
2024/01/31 12:18:36;;;;;;;7.65;6.05;;;7.20;99.90;;;;;;4990294;28;20054;-70
2024/01/31 12:21:03;;;;;;;8.18;6.13;;;7.20;99.90;;;;;;5006826;28;20043;-70
2024/01/31 12:23:30;;;;;;;7.35;5.78;;;7.20;99.90;;;;;;4991623;28;20042;-69
2024/01/31 12:25:57;;;;;;;8.57;6.30;;;7.20;99.90;;;;;;5006826;28;20038;-69
2024/01/31 12:28:23;;;;;;;8.52;7.38;;;7.20;99.90;;;;;;4991682;28;20374;-69
2024/01/31 12:30:51;;;;;;;9.35;6.25;;;7.20;99.90;;;;;;4992202;28;20125;-69
2024/01/31 12:33:17;;;;;;;11.23;6.90;;;7.20;99.90;;;;;;4991886;28;20097;-70
2024/01/31 12:35:44;;;;;;;10.98;6.78;;;7.20;99.90;;;;;;4991896;28;20038;-70
2024/01/31 12:38:10;;;;;;;10.27;7.25;;;7.20;99.90;;;;;;4991495;28;20085;-70
2024/01/31 12:40:36;;;;;;;10.25;7.03;;;7.30;99.90;;;;;;4991693;28;20046;-69
2024/01/31 12:43:02;;;;;;;9.18;7.68;;;7.30;99.90;;;;;;4991785;28;20455;-70
2024/01/31 12:45:28;;;;;;;9.93;7.10;;;7.30;99.90;;;;;;5006514;28;20046;-69
2024/01/31 12:47:54;;;;;;;8.80;7.18;;;7.30;99.90;;;;;;4991371;28;20112;-70
2024/01/31 12:50:20;;;;;;;8.30;7.40;;;7.30;99.90;;;;;;5006277;28;20054;-69
2024/01/31 12:52:47;;;;;;;9.57;7.15;;;7.30;99.90;;;;;;4989937;28;20046;-69